Terminal Aerodrome Forecast
Issued by NWS

Home | Current Version | Previous Version | Text Only | Print | Product List | Glossary On
Versions: 1 2 3 4 5 6 7 8 9 10 11 12 13
000
FTUS43 KOAX 180520
TAFBFF
TAF
KBFF 180520Z 1806/1906 16012KT P6SM SCT150
     FM181900 02015G23KT P6SM BKN100
     FM190100 04018G26KT P6SM -SN BKN025 OVC050=

USA.gov is the U.S. government's official web portal to all federal, state and local government web resources and services.